AirNav   TITAN Aviation Fuels
 
 1536 users online  

OK40 Double H Ranch Airport
Rush Springs, Oklahoma, USA

GOING TO RUSH SPRINGS?


FAA INFORMATION EFFECTIVE 03 NOVEMBER 2022

Location

FAA Identifier: OK40
Lat/Long: 34-43-41.7100N 097-54-02.0800W
34-43.695167N 097-54.034667W
34.7282528,-97.9005778
(estimated)
Elevation: 1321 ft. / 403 m (estimated)
From city: 4 miles SE of RUSH SPRINGS, OK
Time zone: UTC -6 (UTC -5 during Daylight Saving Time)
Zip code: 73082

Airport Operations

Airport use: Private use. Permission required prior to landing
Activation date: 07/2014
Control tower: no
ARTCC: FORT WORTH CENTER
FSS: MC ALESTER FLIGHT SERVICE STATION
Attendance: UNATNDD
Segmented circle: no

Airport Communications

WX AWOS-3 at DUC (16 nm S): 119.075 (580-252-4547)

Nearby radio navigation aids

VOR radial/distance  VOR name  Freq  Var
LAWr052/28.9LAWTON VOR/DME109.4009E

Airport Services

Runway Information

Runway 18/36

Dimensions: 2100 x 80 ft. / 640 x 24 m
Surface: turf, in good condition
RUNWAY 18  RUNWAY 36
Traffic pattern: leftleft

Airport Ownership and Management from official FAA records

Ownership: Privately-owned
Owner: MELVIN HEATH
1176 COUNTY RD 1580
RUSH SPRINGS, OK 73082
Phone (580) 476-3633
Manager: DARRELL HEATH
1176 COUNTY ROAD 1580
RUSH SPRINGS, OK 73082
Phone 281-787-7011

Additional Remarks

FOR CD CTC FORT WORTH ARTCC AT 817-858-7584.

Instrument Procedures

There are no published instrument procedures at OK40.

Some nearby airports with instrument procedures:

KDUC - Halliburton Field Airport (16 nm S)
KCHK - Chickasha Municipal Airport (22 nm N)
KFSI - Henry Post Army Airfield (Fort Sill) (25 nm W)
KLAW - Lawton-Fort Sill Regional Airport (27 nm W)
1K4 - David Jay Perry Airport (33 nm NE)
 
Loc | Ops | Rwys | IFR | FBO | Links
Com | Nav | Svcs | Stats | Notes
Aerial photo
No photo
 
Airport distance calculator
Flying to Double H Ranch Airport? Find the distance to fly.

From to OK40

Sunrise and sunset
Times for 29-Nov-2022
 Local
(UTC-6)
 Zulu
(UTC)
Morning civil twilight06:5212:52
Sunrise07:2013:20
Sunset17:2023:20
Evening civil twilight17:4823:48

Current date and time
Zulu (UTC)  29-Nov-2022 19:26:53
Local (UTC-6)  29-Nov-2022 13:26:53
 
METAR
KDUC 
16nm S 
291915Z AUTO 26012G20KT 10SM CLR 21/07 A2969 RMK AO2 T02090066
KCHK 
23nm N 
291910Z AUTO 29012KT 10SM CLR 18/01 A2967 RMK AO2 T01800013
KFSI 
25nm W 
291855Z AUTO 30012KT 10SM CLR 20/04 A2965 RMK AO2 SLP036 T02030039
KLAW 
28nm SW 
291853Z 27012G16KT 10SM CLR 21/06 A2968 RMK AO2 SLP044 T02060056
TAF
KLAW 
28nm SW 
291726Z 2918/3018 22012G19KT P6SM SKC FM291900 26012G19KT P6SM SKC FM292100 34024G32KT P6SM SKC FM300800 36013KT P6SM SKC FM301200 01007KT P6SM SKC
NOTAMs
Click for the latest NOTAMs
NOTAMs are issued by the DoD/FAA and will open in a separate window not controlled by AirNav.

 

 
 

Would you like to see your business listed on this page?

 If your business provides an interesting product or service to pilots, flight crews, aircraft, or users of the Double H Ranch Airport, you should consider listing it here.  To start the listing process, click on the button below
 
Add a business
 

Other Pages about Double H Ranch Airport

Update a link
 
Copyright © AirNav, LLC. All rights reserved. Privacy Policy  Contact